Time;durP1;ratioP1;P1;durP2;ratioP2;P2;SDS_P1;SDS_P2;PMS_P1;PMS_P2;Temp;Humidity;BMP_temperature;BMP_pressure;BME280_temperature;BME280_humidity;BME280_pressure;Samples;Min_cycle;Max_cycle;Signal;HPM_P1;HPM_P2
2023/09/21 00:00:59;;;;;;;1.25;1.25;;;;;;;;;;5123158;28;20201;-63
2023/09/21 00:03:28;;;;;;;1.52;1.35;;;;;;;;;;5125666;27;20307;-61
2023/09/21 00:05:56;;;;;;;1.27;1.27;;;;;;;;;;5129212;27;20245;-61
2023/09/21 00:08:23;;;;;;;1.88;1.40;;;;;;;;;;5123613;27;20313;-61
2023/09/21 00:10:51;;;;;;;1.30;1.30;;;;;;;;;;5125751;27;20212;-61
2023/09/21 00:13:20;;;;;;;2.35;1.58;;;;;;;;;;5107601;27;20213;-61
2023/09/21 00:15:49;;;;;;;1.35;1.35;;;;;;;;;;5103094;28;20320;-61
2023/09/21 00:18:16;;;;;;;1.65;1.55;;;;;;;;;;5115864;27;20374;-60
2023/09/21 00:20:51;;;;;;;3.40;1.50;;;;;;;;;;5112868;27;20201;-61
2023/09/21 00:23:18;;;;;;;2.00;1.85;;;;;;;;;;5127225;27;20207;-64
2023/09/21 00:25:45;;;;;;;2.22;1.15;;;;;;;;;;5126444;27;20344;-61
2023/09/21 00:28:14;;;;;;;1.30;1.30;;;;;;;;;;5108547;27;20210;-61
2023/09/21 00:30:41;;;;;;;3.90;1.40;;;;;;;;;;5108029;28;20210;-61
2023/09/21 00:33:08;;;;;;;3.53;1.48;;;;;;;;;;5105627;28;20224;-61
2023/09/21 00:35:39;;;;;;;1.65;1.52;;;;;;;;;;5107986;28;20221;-61
2023/09/21 00:38:09;;;;;;;1.60;1.38;;;;;;;;;;5106806;28;20787;-62
2023/09/21 00:40:38;;;;;;;1.50;1.40;;;;;;;;;;5114370;27;20201;-62
2023/09/21 00:43:06;;;;;;;1.60;1.08;;;;;;;;;;5103946;27;20813;-61
2023/09/21 00:45:36;;;;;;;1.35;1.35;;;;;;;;;;5109824;27;20250;-61
2023/09/21 00:48:03;;;;;;;1.60;1.50;;;;;;;;;;5108910;27;20213;-61
2023/09/21 00:50:30;;;;;;;2.10;1.58;;;;;;;;;;5114571;27;20349;-61
2023/09/21 00:52:58;;;;;;;2.58;1.55;;;;;;;;;;5116674;27;20202;-61
2023/09/21 00:55:30;;;;;;;1.45;1.38;;;;;;;;;;5107480;27;20680;-61
2023/09/21 00:58:00;;;;;;;4.70;1.70;;;;;;;;;;5127080;27;20225;-61
2023/09/21 01:00:30;;;;;;;1.83;1.42;;;;;;;;;;5106918;27;20217;-61
2023/09/21 01:03:07;;;;;;;1.73;1.67;;;;;;;;;;5108249;27;20233;-61
2023/09/21 01:05:36;;;;;;;1.63;1.38;;;;;;;;;;5109016;27;20229;-61
2023/09/21 01:08:05;;;;;;;3.03;1.30;;;;;;;;;;5110057;27;20198;-62
2023/09/21 01:10:33;;;;;;;3.22;1.60;;;;;;;;;;5124575;27;20210;-62
2023/09/21 01:13:00;;;;;;;1.73;1.50;;;;;;;;;;5127586;27;20201;-62
2023/09/21 01:15:27;;;;;;;1.30;1.30;;;;;;;;;;5126485;27;20228;-62
2023/09/21 01:17:54;;;;;;;5.40;1.63;;;;;;;;;;5128524;27;20212;-61
2023/09/21 01:20:27;;;;;;;3.72;1.52;;;;;;;;;;5125958;27;20193;-62
2023/09/21 01:22:58;;;;;;;2.47;1.42;;;;;;;;;;5107665;28;20221;-62
2023/09/21 01:25:28;;;;;;;2.10;1.40;;;;;;;;;;5102293;28;20216;-62
2023/09/21 01:27:55;;;;;;;4.90;1.55;;;;;;;;;;5102833;28;20209;-62
2023/09/21 01:30:22;;;;;;;4.72;1.65;;;;;;;;;;5102059;28;20273;-61
2023/09/21 01:32:50;;;;;;;1.75;1.67;;;;;;;;;;5102486;27;20202;-61
2023/09/21 01:35:18;;;;;;;1.77;1.40;;;;;;;;;;5111155;27;20223;-62
2023/09/21 01:37:46;;;;;;;1.70;1.60;;;;;;;;;;5121061;27;20474;-61
2023/09/21 01:40:16;;;;;;;1.88;1.77;;;;;;;;;;5127693;27;20246;-61
2023/09/21 01:42:48;;;;;;;4.10;1.42;;;;;;;;;;5114681;27;20201;-61
2023/09/21 01:45:16;;;;;;;1.83;1.73;;;;;;;;;;5120147;27;20295;-63
2023/09/21 01:47:43;;;;;;;1.45;1.40;;;;;;;;;;5111547;27;20221;-62
2023/09/21 01:50:12;;;;;;;2.70;1.98;;;;;;;;;;5118069;27;20216;-62
2023/09/21 01:52:39;;;;;;;4.63;1.50;;;;;;;;;;5118683;27;20292;-62
2023/09/21 01:55:10;;;;;;;3.45;1.50;;;;;;;;;;5121235;27;20430;-62
2023/09/21 01:57:37;;;;;;;1.52;1.38;;;;;;;;;;5103327;27;20895;-62
2023/09/21 02:00:11;;;;;;;1.40;1.40;;;;;;;;;;5101729;27;20194;-62
2023/09/21 02:02:38;;;;;;;2.58;1.65;;;;;;;;;;5108056;27;20275;-62
2023/09/21 02:05:09;;;;;;;3.20;1.20;;;;;;;;;;5105107;27;20212;-62
2023/09/21 02:07:36;;;;;;;3.42;1.40;;;;;;;;;;5106510;27;20201;-62
2023/09/21 02:10:09;;;;;;;2.72;1.55;;;;;;;;;;5120393;27;20216;-62
2023/09/21 02:12:37;;;;;;;3.08;1.50;;;;;;;;;;5107035;27;20248;-62
2023/09/21 02:15:09;;;;;;;2.78;1.50;;;;;;;;;;5109139;27;20225;-61
2023/09/21 02:17:38;;;;;;;3.15;1.63;;;;;;;;;;5125384;27;20205;-61
2023/09/21 02:20:12;;;;;;;1.30;1.30;;;;;;;;;;5116460;27;20204;-62
2023/09/21 02:22:39;;;;;;;4.22;1.63;;;;;;;;;;5104085;27;20198;-62
2023/09/21 02:25:10;;;;;;;1.65;1.65;;;;;;;;;;5106868;27;20206;-62
2023/09/21 02:27:37;;;;;;;1.52;1.45;;;;;;;;;;5103765;27;20206;-62
2023/09/21 02:30:14;;;;;;;1.60;1.50;;;;;;;;;;5100656;28;20216;-62
2023/09/21 02:32:42;;;;;;;1.65;1.60;;;;;;;;;;5106030;28;20212;-62
2023/09/21 02:35:11;;;;;;;5.05;1.80;;;;;;;;;;5102488;27;20241;-62
2023/09/21 02:37:38;;;;;;;1.30;1.30;;;;;;;;;;5107238;27;20254;-62
2023/09/21 02:40:07;;;;;;;2.83;1.65;;;;;;;;;;5112831;27;20202;-62
2023/09/21 02:42:35;;;;;;;1.50;1.50;;;;;;;;;;5104485;27;20209;-62
2023/09/21 02:45:04;;;;;;;1.23;1.23;;;;;;;;;;5103750;28;20229;-62
2023/09/21 02:47:33;;;;;;;1.60;1.60;;;;;;;;;;5105150;28;20667;-62
2023/09/21 02:50:00;;;;;;;2.17;2.08;;;;;;;;;;5114085;27;20205;-62
2023/09/21 02:52:27;;;;;;;1.70;1.60;;;;;;;;;;5124141;27;20205;-62
2023/09/21 02:54:54;;;;;;;1.80;1.70;;;;;;;;;;5109961;27;20243;-62
2023/09/21 02:57:22;;;;;;;2.70;2.00;;;;;;;;;;5109119;27;20225;-62
2023/09/21 02:59:49;;;;;;;1.70;1.60;;;;;;;;;;5122222;27;20243;-61
2023/09/21 03:02:16;;;;;;;1.17;1.17;;;;;;;;;;5119810;27;20201;-62
2023/09/21 03:04:46;;;;;;;1.70;1.60;;;;;;;;;;5117558;27;20228;-61
2023/09/21 03:07:14;;;;;;;1.92;1.83;;;;;;;;;;5126509;27;20724;-62
2023/09/21 03:09:42;;;;;;;1.80;1.70;;;;;;;;;;5125464;27;20205;-62
2023/09/21 03:12:09;;;;;;;1.60;1.50;;;;;;;;;;5124320;27;20204;-62
2023/09/21 03:14:37;;;;;;;1.70;1.70;;;;;;;;;;5125940;27;20296;-61
2023/09/21 03:17:05;;;;;;;2.55;1.70;;;;;;;;;;5124193;27;20228;-62
2023/09/21 03:19:32;;;;;;;2.20;1.45;;;;;;;;;;5106142;27;20284;-62
2023/09/21 03:22:00;;;;;;;3.20;1.73;;;;;;;;;;5101870;28;20482;-62
2023/09/21 03:24:27;;;;;;;1.85;1.75;;;;;;;;;;5102058;28;20233;-62
2023/09/21 03:26:54;;;;;;;1.73;1.70;;;;;;;;;;5107572;28;20618;-62
2023/09/21 03:29:21;;;;;;;4.57;1.80;;;;;;;;;;5126169;27;20690;-61
2023/09/21 03:31:48;;;;;;;1.70;1.70;;;;;;;;;;5116487;27;20205;-61
2023/09/21 03:34:15;;;;;;;1.70;1.60;;;;;;;;;;5103667;28;20217;-61
2023/09/21 03:36:42;;;;;;;1.45;1.42;;;;;;;;;;5108701;27;20221;-62
2023/09/21 03:39:11;;;;;;;2.08;1.98;;;;;;;;;;5105855;27;20201;-62
2023/09/21 03:41:38;;;;;;;1.70;1.60;;;;;;;;;;5107311;27;20201;-62
2023/09/21 03:44:06;;;;;;;1.52;1.42;;;;;;;;;;5114465;27;20213;-62
2023/09/21 03:46:34;;;;;;;1.42;1.42;;;;;;;;;;5119642;27;20421;-61
2023/09/21 03:49:01;;;;;;;2.38;1.67;;;;;;;;;;5114663;27;20205;-61
2023/09/21 03:51:29;;;;;;;1.63;1.63;;;;;;;;;;5103796;28;20691;-62
2023/09/21 03:53:59;;;;;;;1.90;1.80;;;;;;;;;;5121672;27;20197;-61
2023/09/21 03:56:27;;;;;;;1.60;1.50;;;;;;;;;;5122414;27;20228;-61
2023/09/21 03:58:55;;;;;;;2.05;1.92;;;;;;;;;;5117769;27;20221;-61
2023/09/21 04:01:22;;;;;;;2.53;2.00;;;;;;;;;;5122057;27;20277;-61
2023/09/21 04:03:54;;;;;;;1.80;1.70;;;;;;;;;;5128190;27;20718;-61
2023/09/21 04:06:21;;;;;;;1.40;1.40;;;;;;;;;;5117674;27;20208;-61
2023/09/21 04:08:48;;;;;;;3.28;1.77;;;;;;;;;;5121911;27;20201;-61
2023/09/21 04:11:15;;;;;;;1.95;1.85;;;;;;;;;;5127344;27;20201;-62
2023/09/21 04:13:44;;;;;;;4.30;2.00;;;;;;;;;;5120552;27;20281;-61
2023/09/21 04:16:11;;;;;;;3.23;1.90;;;;;;;;;;5108683;27;20239;-61
2023/09/21 04:18:38;;;;;;;3.45;1.75;;;;;;;;;;5112559;27;20209;-61
2023/09/21 04:21:09;;;;;;;2.20;2.00;;;;;;;;;;5104815;27;20209;-62
2023/09/21 04:23:36;;;;;;;2.10;2.00;;;;;;;;;;5105398;27;20209;-61
2023/09/21 04:26:03;;;;;;;1.70;1.70;;;;;;;;;;5109035;27;20201;-61
2023/09/21 04:28:30;;;;;;;2.00;1.77;;;;;;;;;;5123261;27;20208;-62
2023/09/21 04:31:02;;;;;;;2.40;2.20;;;;;;;;;;5128962;27;20205;-60
2023/09/21 04:33:29;;;;;;;2.75;2.55;;;;;;;;;;5117314;27;20430;-60
2023/09/21 04:35:56;;;;;;;2.33;2.17;;;;;;;;;;5105743;27;20229;-63
2023/09/21 04:38:24;;;;;;;2.13;2.03;;;;;;;;;;5113278;27;20209;-62
2023/09/21 04:40:52;;;;;;;3.35;2.10;;;;;;;;;;5117926;27;20208;-62
2023/09/21 04:43:20;;;;;;;2.60;2.40;;;;;;;;;;5121286;27;20206;-63
2023/09/21 04:45:49;;;;;;;2.20;2.10;;;;;;;;;;5114320;27;20227;-63
2023/09/21 04:48:17;;;;;;;3.13;2.15;;;;;;;;;;5117808;27;20928;-63
2023/09/21 04:50:48;;;;;;;1.95;1.90;;;;;;;;;;5109841;27;20205;-63
2023/09/21 04:53:15;;;;;;;2.33;2.13;;;;;;;;;;5117243;27;20209;-63
2023/09/21 04:55:42;;;;;;;2.13;1.90;;;;;;;;;;5110980;27;20225;-63
2023/09/21 04:58:10;;;;;;;2.25;2.03;;;;;;;;;;5126956;27;20231;-63
2023/09/21 05:00:37;;;;;;;2.85;2.20;;;;;;;;;;5121826;27;20205;-63
2023/09/21 05:03:05;;;;;;;2.15;2.05;;;;;;;;;;5117671;27;20236;-62
2023/09/21 05:05:33;;;;;;;2.67;2.47;;;;;;;;;;5118157;27;20201;-60
2023/09/21 05:08:03;;;;;;;2.63;2.10;;;;;;;;;;5119847;27;20205;-64
2023/09/21 05:10:30;;;;;;;15.30;11.15;;;;;;;;;;5115376;27;20210;-59
2023/09/21 05:12:57;;;;;;;2.63;2.38;;;;;;;;;;5102568;28;20249;-60
2023/09/21 05:15:24;;;;;;;2.92;2.45;;;;;;;;;;5118410;27;20216;-59
2023/09/21 05:17:51;;;;;;;2.17;2.08;;;;;;;;;;5121285;27;20586;-61
2023/09/21 05:20:19;;;;;;;2.00;1.90;;;;;;;;;;5107948;27;20206;-59
2023/09/21 05:22:48;;;;;;;4.90;2.42;;;;;;;;;;5117523;27;20204;-60
2023/09/21 05:25:15;;;;;;;2.22;1.88;;;;;;;;;;5111124;27;20205;-60
2023/09/21 05:27:42;;;;;;;2.88;2.33;;;;;;;;;;5109065;27;20197;-59
2023/09/21 05:30:09;;;;;;;2.08;1.98;;;;;;;;;;5112495;27;20221;-59
2023/09/21 05:32:37;;;;;;;2.30;2.00;;;;;;;;;;5111912;27;20231;-65
2023/09/21 05:35:05;;;;;;;2.25;1.92;;;;;;;;;;5127931;27;20208;-65
2023/09/21 05:37:32;;;;;;;2.00;1.90;;;;;;;;;;5127485;27;20232;-65
2023/09/21 05:40:00;;;;;;;1.92;1.83;;;;;;;;;;5124498;27;20208;-65
2023/09/21 05:42:27;;;;;;;2.22;2.03;;;;;;;;;;5122024;27;20938;-65
2023/09/21 05:44:54;;;;;;;2.72;2.28;;;;;;;;;;5123955;27;20205;-65
2023/09/21 05:47:21;;;;;;;2.63;2.17;;;;;;;;;;5127414;27;20201;-65
2023/09/21 05:49:49;;;;;;;3.38;2.20;;;;;;;;;;5122684;27;20208;-65
2023/09/21 05:52:18;;;;;;;3.47;1.88;;;;;;;;;;5121580;27;20208;-65
2023/09/21 05:54:45;;;;;;;2.20;2.10;;;;;;;;;;5126475;27;20292;-65
2023/09/21 05:57:15;;;;;;;4.03;2.00;;;;;;;;;;5125474;27;20228;-65
2023/09/21 05:59:43;;;;;;;2.38;2.08;;;;;;;;;;5127594;27;20213;-65
2023/09/21 06:02:13;;;;;;;2.40;2.30;;;;;;;;;;5124806;27;20666;-65
2023/09/21 06:04:41;;;;;;;2.70;2.03;;;;;;;;;;5115080;27;20202;-65
2023/09/21 06:07:09;;;;;;;3.30;1.70;;;;;;;;;;5105035;28;20231;-65
2023/09/21 06:09:36;;;;;;;1.83;1.73;;;;;;;;;;5105592;27;20240;-67
2023/09/21 06:12:03;;;;;;;1.83;1.73;;;;;;;;;;5125435;27;20216;-62
2023/09/21 06:14:31;;;;;;;2.22;2.10;;;;;;;;;;5122792;27;20289;-65
2023/09/21 06:16:58;;;;;;;3.83;2.45;;;;;;;;;;5121362;27;20781;-62
2023/09/21 06:19:26;;;;;;;3.65;2.22;;;;;;;;;;5114439;27;20217;-60
2023/09/21 06:21:57;;;;;;;3.83;2.65;;;;;;;;;;5114951;27;20214;-61
2023/09/21 06:24:25;;;;;;;2.08;1.92;;;;;;;;;;5118058;27;20284;-60
2023/09/21 06:26:53;;;;;;;3.08;2.38;;;;;;;;;;5118436;27;20233;-60
2023/09/21 06:29:22;;;;;;;3.88;2.40;;;;;;;;;;5125365;27;20209;-59
2023/09/21 06:31:54;;;;;;;3.22;2.50;;;;;;;;;;5126710;27;20201;-64
2023/09/21 06:34:24;;;;;;;4.65;3.00;;;;;;;;;;5124844;27;20691;-60
2023/09/21 06:36:51;;;;;;;2.35;2.20;;;;;;;;;;5127296;27;20717;-60
2023/09/21 06:39:19;;;;;;;3.00;2.70;;;;;;;;;;5127680;27;20198;-63
2023/09/21 06:41:47;;;;;;;2.88;2.47;;;;;;;;;;5101044;28;20214;-61
2023/09/21 06:44:14;;;;;;;4.60;2.75;;;;;;;;;;5124757;27;20201;-60
2023/09/21 06:46:42;;;;;;;2.42;2.30;;;;;;;;;;5120576;27;20586;-60
2023/09/21 06:49:10;;;;;;;3.15;2.65;;;;;;;;;;5120729;27;20201;-60
2023/09/21 06:51:37;;;;;;;2.28;2.17;;;;;;;;;;5110248;27;20445;-60
2023/09/21 06:54:04;;;;;;;3.03;2.58;;;;;;;;;;5119310;27;20201;-60
2023/09/21 06:56:31;;;;;;;2.78;2.58;;;;;;;;;;5125913;27;20708;-60
2023/09/21 06:58:59;;;;;;;2.92;2.75;;;;;;;;;;5124634;27;20210;-60
2023/09/21 07:01:26;;;;;;;2.97;2.80;;;;;;;;;;5113184;27;20504;-60
2023/09/21 07:03:53;;;;;;;3.72;2.60;;;;;;;;;;5105836;28;20289;-60
2023/09/21 07:06:22;;;;;;;2.95;2.42;;;;;;;;;;5120680;27;20223;-60
2023/09/21 07:08:50;;;;;;;2.63;2.42;;;;;;;;;;5121237;27;20675;-60
2023/09/21 07:11:19;;;;;;;5.35;2.78;;;;;;;;;;5123109;27;20205;-60
2023/09/21 07:13:46;;;;;;;3.30;2.80;;;;;;;;;;5124460;27;20733;-60
2023/09/21 07:16:13;;;;;;;6.00;2.85;;;;;;;;;;5111521;27;20208;-60
2023/09/21 07:18:40;;;;;;;2.58;2.38;;;;;;;;;;5119701;27;20292;-60
2023/09/21 07:21:08;;;;;;;2.55;2.35;;;;;;;;;;5120172;27;20209;-61
2023/09/21 07:23:36;;;;;;;4.15;2.72;;;;;;;;;;5122539;27;20303;-60
2023/09/21 07:26:03;;;;;;;3.80;2.65;;;;;;;;;;5120527;27;20219;-61
2023/09/21 07:28:30;;;;;;;3.72;2.80;;;;;;;;;;5126015;27;20204;-60
2023/09/21 07:30:57;;;;;;;2.60;2.30;;;;;;;;;;5125517;27;20204;-61
2023/09/21 07:33:25;;;;;;;2.50;2.35;;;;;;;;;;5123477;27;20284;-61
2023/09/21 07:35:53;;;;;;;2.80;2.60;;;;;;;;;;5125492;27;20208;-61
2023/09/21 07:38:21;;;;;;;3.85;2.90;;;;;;;;;;5105223;27;20257;-61
2023/09/21 07:40:50;;;;;;;2.47;2.28;;;;;;;;;;5109965;27;20205;-61
2023/09/21 07:43:17;;;;;;;3.47;2.30;;;;;;;;;;5124242;27;20213;-62
2023/09/21 07:45:47;;;;;;;7.03;2.53;;;;;;;;;;5125525;27;20201;-61
2023/09/21 07:48:15;;;;;;;2.72;2.50;;;;;;;;;;5102732;28;20201;-62
2023/09/21 07:50:43;;;;;;;2.40;2.30;;;;;;;;;;5108842;27;20216;-61
2023/09/21 07:53:10;;;;;;;2.33;2.15;;;;;;;;;;5117938;27;20311;-62
2023/09/21 07:55:37;;;;;;;3.40;3.20;;;;;;;;;;5121999;27;20671;-65
2023/09/21 07:58:07;;;;;;;8.57;2.50;;;;;;;;;;5109939;27;20691;-65
2023/09/21 08:00:34;;;;;;;6.25;3.38;;;;;;;;;;5123630;27;20205;-66
2023/09/21 08:03:01;;;;;;;3.83;2.80;;;;;;;;;;5112195;28;20241;-69
2023/09/21 08:05:30;;;;;;;10.38;3.30;;;;;;;;;;5123920;27;20231;-66
2023/09/21 08:07:57;;;;;;;6.00;2.85;;;;;;;;;;5111635;27;20251;-67
2023/09/21 08:10:24;;;;;;;2.83;2.63;;;;;;;;;;5103456;28;20259;-67
2023/09/21 08:12:52;;;;;;;3.45;2.83;;;;;;;;;;5105184;28;20213;-67
2023/09/21 08:15:21;;;;;;;6.63;3.20;;;;;;;;;;5115589;27;20701;-67
2023/09/21 08:17:48;;;;;;;3.83;2.70;;;;;;;;;;5125625;27;20781;-64
2023/09/21 08:20:15;;;;;;;4.18;2.65;;;;;;;;;;5115938;27;20212;-61
2023/09/21 08:22:47;;;;;;;2.75;2.55;;;;;;;;;;5119874;27;20197;-61
2023/09/21 08:25:14;;;;;;;3.42;2.78;;;;;;;;;;5122051;27;20193;-61
2023/09/21 08:27:41;;;;;;;6.88;2.78;;;;;;;;;;5121565;27;20266;-62
2023/09/21 08:30:09;;;;;;;3.22;2.60;;;;;;;;;;5106495;27;20198;-61
2023/09/21 08:32:39;;;;;;;6.35;2.65;;;;;;;;;;5113681;27;20220;-62
2023/09/21 08:35:07;;;;;;;2.65;2.45;;;;;;;;;;5106597;28;20240;-61
2023/09/21 08:37:55;;;;;;;4.00;2.55;;;;;;;;;;5110869;27;20237;-61
2023/09/21 08:40:23;;;;;;;3.00;2.80;;;;;;;;;;5108921;27;20214;-61
2023/09/21 08:42:52;;;;;;;4.65;2.75;;;;;;;;;;5125569;27;20201;-61
2023/09/21 08:45:20;;;;;;;4.13;2.50;;;;;;;;;;5122855;27;20216;-61
2023/09/21 08:47:48;;;;;;;4.15;2.47;;;;;;;;;;5116417;27;20226;-63
2023/09/21 08:50:18;;;;;;;7.07;2.88;;;;;;;;;;5123036;27;20715;-62
2023/09/21 08:52:47;;;;;;;8.60;2.83;;;;;;;;;;5123703;27;20674;-61
2023/09/21 08:55:14;;;;;;;5.63;2.63;;;;;;;;;;5111913;27;20201;-61
2023/09/21 08:57:41;;;;;;;9.32;2.67;;;;;;;;;;5107168;28;20232;-63
2023/09/21 09:00:09;;;;;;;3.78;2.97;;;;;;;;;;5119463;27;20204;-61
2023/09/21 09:02:37;;;;;;;2.92;2.58;;;;;;;;;;5105543;28;20237;-61
2023/09/21 09:05:07;;;;;;;3.50;2.53;;;;;;;;;;5106761;28;20205;-60
2023/09/21 09:07:39;;;;;;;2.63;2.13;;;;;;;;;;5116381;27;20198;-60
2023/09/21 09:10:07;;;;;;;8.02;2.85;;;;;;;;;;5102426;28;20262;-61
2023/09/21 09:12:34;;;;;;;2.88;2.58;;;;;;;;;;5108970;27;20667;-61
2023/09/21 09:15:02;;;;;;;5.03;2.80;;;;;;;;;;5121772;27;20208;-60
2023/09/21 09:17:30;;;;;;;3.65;2.60;;;;;;;;;;5110933;27;20244;-60
2023/09/21 09:20:02;;;;;;;3.38;3.08;;;;;;;;;;5112211;27;20282;-61
2023/09/21 09:22:31;;;;;;;6.80;2.63;;;;;;;;;;5120764;27;20229;-60
2023/09/21 09:24:58;;;;;;;4.03;2.90;;;;;;;;;;5128342;27;20618;-61
2023/09/21 09:27:25;;;;;;;6.90;2.90;;;;;;;;;;5117285;27;20201;-61
2023/09/21 09:29:53;;;;;;;2.83;2.63;;;;;;;;;;5107954;27;20206;-60
2023/09/21 09:32:21;;;;;;;2.58;2.47;;;;;;;;;;5117154;27;20228;-63
2023/09/21 09:34:48;;;;;;;2.50;2.25;;;;;;;;;;5101692;28;20217;-64
2023/09/21 09:37:15;;;;;;;3.38;2.40;;;;;;;;;;5102671;27;20278;-61
2023/09/21 09:39:44;;;;;;;2.50;2.30;;;;;;;;;;5105338;27;20305;-62
2023/09/21 09:42:12;;;;;;;5.03;3.20;;;;;;;;;;5115648;27;20209;-61
2023/09/21 09:44:43;;;;;;;2.60;2.25;;;;;;;;;;5107070;27;20297;-60
2023/09/21 09:47:12;;;;;;;4.90;2.60;;;;;;;;;;5105230;27;20302;-61
2023/09/21 09:49:40;;;;;;;3.67;2.15;;;;;;;;;;5117279;27;20339;-61
2023/09/21 09:52:10;;;;;;;4.38;2.70;;;;;;;;;;5121664;27;20265;-62
2023/09/21 09:54:39;;;;;;;2.58;2.38;;;;;;;;;;5124304;27;20215;-61
2023/09/21 09:57:11;;;;;;;2.95;2.20;;;;;;;;;;5120969;27;20229;-61
2023/09/21 09:59:39;;;;;;;2.53;2.30;;;;;;;;;;5123007;27;20902;-64
2023/09/21 10:02:07;;;;;;;5.65;2.05;;;;;;;;;;5121348;27;20223;-59
2023/09/21 10:04:40;;;;;;;3.38;2.15;;;;;;;;;;5105635;27;20237;-61
2023/09/21 10:07:08;;;;;;;2.00;1.90;;;;;;;;;;5105253;27;20229;-61
2023/09/21 10:09:37;;;;;;;3.80;2.25;;;;;;;;;;5106949;27;20325;-61
2023/09/21 10:12:04;;;;;;;3.75;2.10;;;;;;;;;;5120344;27;20204;-61
2023/09/21 10:14:35;;;;;;;2.25;2.15;;;;;;;;;;5114463;27;20232;-64
2023/09/21 10:17:05;;;;;;;2.35;1.73;;;;;;;;;;5112101;27;20233;-61
2023/09/21 10:19:38;;;;;;;2.70;2.50;;;;;;;;;;5123888;27;20208;-61
2023/09/21 10:22:22;;;;;;;1.80;1.70;;;;;;;;;;5120689;27;20348;-62
2023/09/21 10:24:50;;;;;;;2.22;2.10;;;;;;;;;;5123552;27;20304;-61
2023/09/21 10:27:21;;;;;;;4.05;2.00;;;;;;;;;;5120210;27;20209;-61
2023/09/21 10:29:52;;;;;;;3.20;2.00;;;;;;;;;;5112756;27;20236;-62
2023/09/21 10:32:24;;;;;;;4.68;1.90;;;;;;;;;;5119263;27;20201;-63
2023/09/21 10:34:52;;;;;;;1.70;1.60;;;;;;;;;;5126124;27;20208;-63
2023/09/21 10:37:26;;;;;;;2.88;1.80;;;;;;;;;;5126176;27;20233;-63
2023/09/21 10:39:58;;;;;;;2.25;2.15;;;;;;;;;;5120145;27;20211;-62
2023/09/21 10:42:34;;;;;;;3.45;2.05;;;;;;;;;;5122590;27;20626;-63
2023/09/21 10:45:07;;;;;;;1.92;1.80;;;;;;;;;;5126332;27;20212;-63
2023/09/21 10:47:55;;;;;;;4.05;1.88;;;;;;;;;;5121018;27;20287;-63
2023/09/21 10:50:22;;;;;;;4.82;2.17;;;;;;;;;;5099805;27;20209;-62
2023/09/21 10:52:51;;;;;;;2.35;2.15;;;;;;;;;;5108226;27;21132;-62
2023/09/21 10:55:18;;;;;;;3.10;1.90;;;;;;;;;;5099951;27;20564;-61
2023/09/21 10:57:46;;;;;;;1.98;1.88;;;;;;;;;;5118421;27;20255;-61
2023/09/21 11:00:20;;;;;;;3.28;1.90;;;;;;;;;;5123624;27;20209;-61
2023/09/21 11:02:49;;;;;;;4.85;1.90;;;;;;;;;;5110824;27;20230;-61
2023/09/21 11:05:17;;;;;;;2.78;2.13;;;;;;;;;;5121670;27;20229;-61
2023/09/21 11:07:45;;;;;;;2.10;1.83;;;;;;;;;;5121807;27;20198;-61
2023/09/21 11:10:14;;;;;;;2.50;1.77;;;;;;;;;;5108058;27;20278;-60
2023/09/21 11:12:41;;;;;;;1.83;1.73;;;;;;;;;;5118682;27;20692;-61
2023/09/21 11:15:10;;;;;;;41.83;7.53;;;;;;;;;;5120337;27;20208;-61
2023/09/21 11:17:38;;;;;;;5.03;1.77;;;;;;;;;;5121392;27;20660;-60
2023/09/21 11:20:07;;;;;;;36.22;7.38;;;;;;;;;;5111200;27;20208;-61
2023/09/21 11:22:34;;;;;;;10.05;3.50;;;;;;;;;;5111786;27;20208;-60
2023/09/21 11:25:01;;;;;;;4.57;2.17;;;;;;;;;;5117391;27;20201;-61
2023/09/21 11:27:28;;;;;;;2.40;1.88;;;;;;;;;;5114674;27;20596;-61
2023/09/21 11:29:57;;;;;;;1.92;1.25;;;;;;;;;;5124076;27;20208;-63
2023/09/21 11:32:24;;;;;;;4.90;2.00;;;;;;;;;;5111318;27;20201;-69
2023/09/21 11:34:59;;;;;;;7.40;2.45;;;;;;;;;;5107081;27;20209;-63
2023/09/21 11:37:28;;;;;;;1.38;1.27;;;;;;;;;;5118176;28;20239;-61
2023/09/21 11:39:55;;;;;;;1.50;1.40;;;;;;;;;;5117743;28;20197;-61
2023/09/21 11:42:25;;;;;;;1.48;1.40;;;;;;;;;;5115098;27;20200;-62
2023/09/21 11:44:52;;;;;;;2.03;1.88;;;;;;;;;;5099601;28;20282;-61
2023/09/21 11:47:22;;;;;;;3.13;1.70;;;;;;;;;;5107440;27;20225;-62
2023/09/21 11:49:52;;;;;;;1.67;1.58;;;;;;;;;;5113666;27;20201;-62
2023/09/21 11:52:24;;;;;;;5.68;1.60;;;;;;;;;;5113151;27;20214;-61
2023/09/21 11:54:52;;;;;;;1.33;1.33;;;;;;;;;;5114556;28;20292;-63
2023/09/21 11:57:20;;;;;;;2.28;2.17;;;;;;;;;;5120495;27;20213;-62
2023/09/21 11:59:47;;;;;;;1.23;1.23;;;;;;;;;;5120170;27;20225;-62
2023/09/21 12:02:16;;;;;;;1.38;1.27;;;;;;;;;;5108335;27;20667;-61
2023/09/21 12:04:43;;;;;;;3.65;1.08;;;;;;;;;;5109951;27;20211;-64
2023/09/21 12:07:11;;;;;;;1.95;1.20;;;;;;;;;;5116276;27;20205;-65
2023/09/21 12:09:40;;;;;;;1.38;1.38;;;;;;;;;;5114484;27;20224;-67
2023/09/21 12:12:09;;;;;;;3.22;1.23;;;;;;;;;;5120237;27;20821;-62
2023/09/21 12:14:36;;;;;;;2.70;1.40;;;;;;;;;;5115573;27;20231;-63
2023/09/21 12:17:09;;;;;;;1.35;1.20;;;;;;;;;;5113014;27;20205;-63
2023/09/21 12:19:36;;;;;;;2.00;1.50;;;;;;;;;;5112788;27;20229;-64
2023/09/21 12:22:04;;;;;;;1.27;1.15;;;;;;;;;;5110721;27;20251;-65
2023/09/21 12:24:31;;;;;;;1.20;1.20;;;;;;;;;;5124899;27;20671;-64
2023/09/21 12:27:00;;;;;;;1.02;1.02;;;;;;;;;;5125023;27;20247;-65
2023/09/21 12:29:27;;;;;;;1.92;0.98;;;;;;;;;;5122916;27;20197;-65
2023/09/21 12:31:56;;;;;;;1.58;1.00;;;;;;;;;;5123564;27;20316;-65
2023/09/21 12:34:23;;;;;;;2.92;1.20;;;;;;;;;;5125355;27;20208;-64
2023/09/21 12:36:52;;;;;;;2.60;1.10;;;;;;;;;;5128310;27;20209;-64
2023/09/21 12:39:19;;;;;;;1.20;1.10;;;;;;;;;;5120274;27;20224;-64
2023/09/21 12:41:46;;;;;;;1.00;1.00;;;;;;;;;;5127983;27;20254;-64
2023/09/21 12:44:14;;;;;;;1.25;1.20;;;;;;;;;;5114086;27;20205;-65
2023/09/21 12:46:41;;;;;;;1.25;1.00;;;;;;;;;;5118065;27;20201;-64
2023/09/21 12:49:08;;;;;;;2.28;1.10;;;;;;;;;;5115202;27;20205;-64
2023/09/21 12:51:36;;;;;;;0.80;0.80;;;;;;;;;;5127689;27;20688;-65
2023/09/21 12:54:07;;;;;;;1.48;1.02;;;;;;;;;;5121420;27;20577;-64
2023/09/21 12:56:34;;;;;;;1.65;1.38;;;;;;;;;;5107778;28;20262;-65
2023/09/21 12:59:01;;;;;;;0.98;0.98;;;;;;;;;;5110166;27;20238;-64
2023/09/21 13:01:29;;;;;;;3.00;0.90;;;;;;;;;;5102549;27;20221;-64
2023/09/21 13:03:59;;;;;;;0.77;0.70;;;;;;;;;;5109391;27;20233;-65
2023/09/21 13:06:27;;;;;;;0.70;0.70;;;;;;;;;;5116545;27;20301;-65
2023/09/21 13:08:54;;;;;;;1.08;0.85;;;;;;;;;;5107295;27;20201;-66
2023/09/21 13:11:21;;;;;;;0.60;0.60;;;;;;;;;;5119182;27;20270;-64
2023/09/21 13:13:48;;;;;;;0.73;0.73;;;;;;;;;;5122523;27;20595;-64
2023/09/21 13:16:19;;;;;;;0.50;0.50;;;;;;;;;;5105381;28;20202;-64
2023/09/21 13:18:47;;;;;;;3.13;0.90;;;;;;;;;;5122046;27;20229;-64
2023/09/21 13:21:16;;;;;;;1.60;0.70;;;;;;;;;;5122774;27;20213;-65
2023/09/21 13:23:43;;;;;;;2.38;0.80;;;;;;;;;;5121968;27;20710;-65
2023/09/21 13:26:10;;;;;;;1.15;0.70;;;;;;;;;;5115635;27;20620;-65
2023/09/21 13:28:37;;;;;;;0.85;0.80;;;;;;;;;;5103047;28;20206;-65
2023/09/21 13:31:04;;;;;;;0.60;0.60;;;;;;;;;;5105979;27;20210;-65
2023/09/21 13:33:31;;;;;;;0.82;0.60;;;;;;;;;;5127642;27;20209;-62
2023/09/21 13:36:00;;;;;;;0.98;0.90;;;;;;;;;;5122604;27;20202;-65
2023/09/21 13:38:28;;;;;;;0.88;0.88;;;;;;;;;;5118834;27;20273;-63
2023/09/21 13:40:55;;;;;;;2.28;0.80;;;;;;;;;;5122197;27;20209;-62
2023/09/21 13:43:24;;;;;;;0.80;0.80;;;;;;;;;;5101391;28;20346;-62
2023/09/21 13:45:51;;;;;;;0.80;0.80;;;;;;;;;;5100858;28;20206;-63
2023/09/21 13:48:19;;;;;;;1.75;0.88;;;;;;;;;;5113754;27;20689;-61
2023/09/21 13:50:48;;;;;;;0.95;0.70;;;;;;;;;;5106726;27;20283;-60
2023/09/21 13:53:16;;;;;;;3.72;1.20;;;;;;;;;;5109292;27;20213;-64
2023/09/21 13:55:43;;;;;;;0.93;0.80;;;;;;;;;;5124689;27;20217;-61
2023/09/21 13:58:10;;;;;;;3.80;0.70;;;;;;;;;;5114621;27;20710;-66
2023/09/21 14:00:37;;;;;;;0.80;0.80;;;;;;;;;;5111159;27;20198;-64
2023/09/21 14:03:05;;;;;;;1.20;0.70;;;;;;;;;;5107699;27;20237;-65
2023/09/21 14:05:33;;;;;;;0.95;0.80;;;;;;;;;;5104144;27;20579;-65
2023/09/21 14:08:00;;;;;;;3.17;0.90;;;;;;;;;;5104635;28;20213;-65
2023/09/21 14:10:29;;;;;;;11.50;8.05;;;;;;;;;;5106085;27;20201;-63
2023/09/21 14:12:56;;;;;;;0.60;0.60;;;;;;;;;;5105972;28;20210;-65
2023/09/21 14:15:23;;;;;;;0.85;0.70;;;;;;;;;;5105280;27;20232;-64
2023/09/21 14:17:51;;;;;;;0.65;0.65;;;;;;;;;;5124989;27;20223;-66
2023/09/21 14:20:21;;;;;;;0.88;0.85;;;;;;;;;;5111529;27;20236;-62
2023/09/21 14:22:48;;;;;;;1.63;1.15;;;;;;;;;;5118179;27;20193;-64
2023/09/21 14:25:15;;;;;;;3.45;0.70;;;;;;;;;;5117671;27;20201;-65
2023/09/21 14:27:43;;;;;;;1.75;0.80;;;;;;;;;;5118516;27;20232;-64
2023/09/21 14:30:11;;;;;;;3.38;0.70;;;;;;;;;;5103947;27;20209;-64
2023/09/21 14:32:38;;;;;;;1.63;1.00;;;;;;;;;;5119348;27;20940;-66
2023/09/21 14:35:06;;;;;;;0.70;0.70;;;;;;;;;;5120662;27;20196;-65
2023/09/21 14:37:33;;;;;;;2.22;1.00;;;;;;;;;;5105233;27;20208;-65
2023/09/21 14:40:01;;;;;;;0.60;0.60;;;;;;;;;;5105337;28;21037;-66
2023/09/21 14:42:28;;;;;;;0.82;0.63;;;;;;;;;;5107978;27;20201;-66
2023/09/21 14:44:56;;;;;;;0.65;0.65;;;;;;;;;;5117620;27;20300;-66
2023/09/21 14:47:26;;;;;;;1.65;0.55;;;;;;;;;;5110201;27;20200;-66
2023/09/21 14:49:56;;;;;;;3.42;0.88;;;;;;;;;;5114752;27;20208;-60